Time;durP1;ratioP1;P1;durP2;ratioP2;P2;SDS_P1;SDS_P2;PMS_P1;PMS_P2;Temp;Humidity;BMP_temperature;BMP_pressure;BME280_temperature;BME280_humidity;BME280_pressure;Samples;Min_cycle;Max_cycle;Signal;HPM_P1;HPM_P2
2021/09/11 05:41:00;;;;;;;136.27;129.50;;;16.10;99.90;;;;;;6306340;22;20415;-81
2021/09/11 06:33:36;;;;;;;;;;;;;;;;;;;;;
2021/09/11 06:39:58;;;;;;;;;;;;;;;;;;;;;
2021/09/11 06:45:36;;;;;;;13.50;12.30;;;17.50;99.90;;;;;;6213004;23;20419;-78
2021/09/11 06:48:33;;;;;;;10.30;9.07;;;17.50;99.90;;;;;;6215381;23;20438;-82
2021/09/11 06:51:49;;;;;;;10.10;8.60;;;17.40;99.90;;;;;;6225797;23;20428;-82
2021/09/11 06:58:01;;;;;;;13.13;11.63;;;17.50;99.90;;;;;;6203349;22;20863;-82
2021/09/11 08:48:55;;;;;;;4.00;2.20;;;22.60;51.00;;;;;;6207567;23;20472;-83
2021/09/11 08:58:07;;;;;;;4.30;2.10;;;23.00;47.20;;;;;;6216543;23;20438;-84
2021/09/11 09:32:01;;;;;;;4.87;1.83;;;25.20;36.00;;;;;;5886721;23;20539;-77
2021/09/11 09:34:32;;;;;;;4.20;2.10;;;25.40;37.20;;;;;;6021625;23;20712;-76
2021/09/11 09:37:01;;;;;;;3.50;1.57;;;25.30;35.60;;;;;;6173550;23;20974;-76
2021/09/11 09:39:28;;;;;;;4.27;2.13;;;25.20;32.60;;;;;;6215160;23;20409;-80
2021/09/11 09:42:03;;;;;;;4.47;2.00;;;24.90;34.30;;;;;;6216610;23;20411;-77
2021/09/11 09:44:40;;;;;;;5.07;2.33;;;25.40;33.00;;;;;;6216606;23;20402;-78
2021/09/11 09:47:12;;;;;;;7.00;2.30;;;25.30;31.30;;;;;;6215779;23;20396;-76
2021/09/11 09:49:39;;;;;;;5.77;1.73;;;24.90;31.20;;;;;;6216448;23;20400;-75
2021/09/11 09:52:06;;;;;;;5.77;2.60;;;25.00;34.30;;;;;;6226049;23;20444;-75
2021/09/11 09:54:33;;;;;;;6.30;2.20;;;25.40;33.50;;;;;;6225124;23;20466;-76
2021/09/11 09:57:00;;;;;;;6.30;2.63;;;25.70;31.20;;;;;;6215974;23;20438;-77
2021/09/11 09:59:27;;;;;;;5.70;2.23;;;26.20;30.90;;;;;;6216006;23;20401;-78
2021/09/11 10:01:54;;;;;;;6.87;2.50;;;26.80;32.00;;;;;;6216292;23;20700;-76
2021/09/11 10:04:23;;;;;;;7.93;2.57;;;27.70;24.80;;;;;;6216374;23;20431;-77
2021/09/11 10:06:53;;;;;;;6.97;2.17;;;27.60;23.60;;;;;;6216139;23;20426;-77
2021/09/11 10:09:24;;;;;;;4.30;2.07;;;25.70;25.50;;;;;;6214379;23;20407;-76
2021/09/11 10:11:51;;;;;;;6.00;3.00;;;25.00;30.60;;;;;;6216030;23;20519;-76
2021/09/11 10:14:20;;;;;;;5.40;3.03;;;24.30;32.40;;;;;;6215684;23;20867;-77
2021/09/11 10:16:59;;;;;;;8.37;2.63;;;24.30;36.60;;;;;;6215664;23;20438;-76
2021/09/11 10:19:28;;;;;;;6.70;2.27;;;24.10;35.30;;;;;;6215930;23;20406;-77
2021/09/11 10:22:08;;;;;;;5.00;2.00;;;25.00;36.00;;;;;;6215694;23;20400;-76
2021/09/11 10:24:37;;;;;;;4.30;1.80;;;25.70;31.40;;;;;;6214304;23;20406;-77
2021/09/11 10:27:11;;;;;;;5.13;2.00;;;26.30;28.90;;;;;;6216003;23;20400;-76
2021/09/11 10:29:53;;;;;;;5.40;2.23;;;26.00;29.00;;;;;;6216199;23;20401;-77
2021/09/11 10:32:36;;;;;;;7.17;2.20;;;25.10;29.80;;;;;;6226082;23;20432;-75
2021/09/11 10:35:07;;;;;;;5.53;2.70;;;24.90;30.00;;;;;;6216108;23;20408;-77
2021/09/11 10:37:38;;;;;;;5.00;2.53;;;24.80;31.10;;;;;;6216023;23;20530;-76
2021/09/11 10:40:26;;;;;;;5.80;2.07;;;25.20;32.30;;;;;;6214583;23;20852;-76
2021/09/11 10:43:24;;;;;;;6.20;2.50;;;24.50;30.20;;;;;;6216157;23;20424;-76
2021/09/11 10:46:01;;;;;;;4.43;2.20;;;24.70;30.40;;;;;;6215964;23;20400;-75
2021/09/11 10:48:39;;;;;;;5.60;2.30;;;24.00;32.10;;;;;;6215280;23;20950;-76
2021/09/11 10:51:29;;;;;;;6.73;2.80;;;23.90;35.70;;;;;;6215914;23;20448;-77
2021/09/11 10:54:15;;;;;;;6.00;2.33;;;24.00;37.40;;;;;;6214431;23;20396;-75
2021/09/11 10:56:52;;;;;;;5.73;2.30;;;24.20;36.00;;;;;;6215468;23;20436;-77
2021/09/11 10:59:30;;;;;;;5.57;2.70;;;24.50;32.80;;;;;;6215498;23;20791;-76
2021/09/11 11:01:59;;;;;;;5.30;2.30;;;25.10;33.90;;;;;;6215881;23;20404;-77
2021/09/11 11:04:27;;;;;;;6.37;2.33;;;24.70;30.40;;;;;;6225764;23;20404;-77
2021/09/11 11:06:57;;;;;;;4.80;2.30;;;24.30;34.60;;;;;;6225863;23;20412;-76
2021/09/11 11:09:25;;;;;;;5.60;2.67;;;24.30;32.90;;;;;;6214161;23;20400;-76
2021/09/11 11:11:53;;;;;;;4.63;2.40;;;25.10;33.80;;;;;;6215500;23;20428;-78
2021/09/11 11:14:20;;;;;;;6.20;2.23;;;26.40;30.10;;;;;;6215809;23;20400;-76
2021/09/11 11:16:51;;;;;;;6.53;2.03;;;27.70;24.80;;;;;;6215021;23;20446;-77
2021/09/11 11:19:24;;;;;;;5.80;2.67;;;27.90;21.20;;;;;;6215423;23;20400;-75
2021/09/11 11:21:57;;;;;;;6.57;2.57;;;28.60;19.80;;;;;;6215742;23;20404;-75
2021/09/11 11:24:24;;;;;;;4.37;2.03;;;28.50;19.40;;;;;;6214190;23;20404;-76
2021/09/11 11:26:51;;;;;;;5.03;1.77;;;28.10;18.50;;;;;;6215582;23;20400;-76
2021/09/11 11:29:20;;;;;;;4.90;2.00;;;27.60;18.30;;;;;;6215601;23;20400;-77
2021/09/11 11:32:47;;;;;;;;;;;;;;;;;;;;;
2021/09/11 12:14:22;;;;;;;4.00;1.93;;;28.30;19.90;;;;;;6180699;23;20462;-78
2021/09/11 12:16:48;;;;;;;4.97;1.80;;;28.60;16.20;;;;;;6216979;23;20442;-80
2021/09/11 12:19:18;;;;;;;4.73;2.23;;;28.70;14.70;;;;;;6216968;23;20486;-78
2021/09/11 12:21:45;;;;;;;9.23;2.67;;;28.50;14.40;;;;;;6227169;23;20418;-81
2021/09/11 12:24:23;;;;;;;4.73;2.03;;;27.70;16.30;;;;;;6215226;23;20371;-80
2021/09/11 12:26:50;;;;;;;5.87;2.20;;;27.00;18.70;;;;;;6227083;23;20876;-81
2021/09/11 12:29:17;;;;;;;4.00;2.00;;;26.20;20.40;;;;;;6216890;23;20907;-79
2021/09/11 12:31:56;;;;;;;5.30;2.00;;;26.70;21.20;;;;;;6217209;23;20430;-79
2021/09/11 12:34:24;;;;;;;5.40;2.10;;;27.50;20.90;;;;;;6227126;23;20389;-79
2021/09/11 12:37:00;;;;;;;5.60;2.37;;;27.00;19.80;;;;;;6217210;23;20780;-80
2021/09/11 12:39:29;;;;;;;5.60;2.60;;;26.20;19.70;;;;;;6225781;23;20966;-80
2021/09/11 12:41:58;;;;;;;6.80;2.40;;;25.40;23.20;;;;;;6216720;23;20408;-81
2021/09/11 13:38:03;;;;;;;;;;;;;;;;;;;;;
2021/09/11 15:12:41;;;;;;;5.40;2.63;;;22.30;37.40;;;;;;6215014;23;20460;-89
2021/09/11 15:15:28;;;;;;;5.20;2.77;;;22.20;37.30;;;;;;6064260;23;20426;-83
2021/09/11 15:27:33;;;;;;;5.20;2.30;;;21.80;39.60;;;;;;5996998;23;20439;-78
2021/09/11 15:30:00;;;;;;;8.23;2.30;;;21.60;38.90;;;;;;6126935;23;20391;-78
2021/09/11 15:32:28;;;;;;;7.70;2.57;;;21.70;39.90;;;;;;6185467;23;20443;-78
2021/09/11 15:34:55;;;;;;;9.10;3.30;;;21.90;39.10;;;;;;6195337;23;20414;-77
2021/09/11 15:37:22;;;;;;;4.87;2.40;;;22.00;40.40;;;;;;6185673;23;20729;-78
2021/09/11 15:39:49;;;;;;;6.77;2.90;;;22.10;39.90;;;;;;6184055;23;20405;-77
2021/09/11 15:42:16;;;;;;;5.50;2.87;;;22.30;39.80;;;;;;6185535;23;20410;-78
2021/09/11 15:44:43;;;;;;;5.10;2.30;;;22.50;39.20;;;;;;6185170;23;20452;-78
2021/09/11 15:47:10;;;;;;;7.20;2.83;;;22.40;37.60;;;;;;6187305;23;20400;-76
2021/09/11 15:49:38;;;;;;;4.80;2.73;;;22.30;39.50;;;;;;6187589;23;20459;-77
2021/09/11 15:52:06;;;;;;;5.60;3.07;;;22.20;37.90;;;;;;6187489;23;20515;-79
2021/09/11 15:54:33;;;;;;;4.67;2.60;;;22.10;38.80;;;;;;6185904;23;20404;-77
2021/09/11 15:57:00;;;;;;;5.40;3.03;;;21.90;38.80;;;;;;6187169;23;21051;-81
2021/09/11 15:59:27;;;;;;;6.17;2.43;;;22.00;39.90;;;;;;6187471;23;20456;-79
2021/09/11 16:01:54;;;;;;;5.90;2.40;;;21.70;40.30;;;;;;6187406;23;20408;-79
2021/09/11 16:04:21;;;;;;;5.00;2.60;;;21.50;41.10;;;;;;6187362;23;20786;-83
2021/09/11 16:06:49;;;;;;;5.83;3.00;;;21.30;42.30;;;;;;6186218;23;20484;-81
2021/09/11 16:09:16;;;;;;;6.30;2.80;;;21.10;43.30;;;;;;6183357;23;20407;-82
2021/09/11 16:11:49;;;;;;;4.67;2.73;;;21.00;44.50;;;;;;6195147;23;20907;-84
2021/09/11 16:14:16;;;;;;;5.20;2.60;;;20.90;45.20;;;;;;6185035;23;20401;-81
2021/09/11 16:16:43;;;;;;;5.80;3.00;;;20.80;45.70;;;;;;6185769;23;20794;-84
2021/09/11 16:19:10;;;;;;;4.93;3.00;;;20.70;46.90;;;;;;6185521;23;20492;-85
2021/09/11 16:21:38;;;;;;;7.47;3.37;;;20.70;49.30;;;;;;6185437;23;20430;-85
2021/09/11 16:24:06;;;;;;;5.20;2.73;;;20.70;49.10;;;;;;6183482;23;20461;-84
2021/09/11 16:26:34;;;;;;;7.23;3.17;;;20.60;48.60;;;;;;6194898;23;20408;-83
2021/09/11 16:29:01;;;;;;;5.67;3.30;;;20.60;49.60;;;;;;6185084;23;20743;-86
2021/09/11 16:31:28;;;;;;;4.27;2.67;;;20.60;49.00;;;;;;6185737;23;20429;-85
2021/09/11 16:33:55;;;;;;;8.93;2.77;;;20.60;50.20;;;;;;6185494;23;20760;-85
2021/09/11 16:36:22;;;;;;;6.13;2.90;;;20.50;51.50;;;;;;6185405;23;20424;-85
2021/09/11 16:38:50;;;;;;;7.10;2.57;;;20.50;50.70;;;;;;6183303;23;20483;-85
2021/09/11 16:41:19;;;;;;;5.57;3.40;;;20.50;52.60;;;;;;6185389;23;20404;-84
2021/09/11 16:43:47;;;;;;;5.60;3.07;;;20.50;51.30;;;;;;6195562;23;20892;-81
2021/09/11 16:46:14;;;;;;;6.40;3.30;;;20.40;53.20;;;;;;6195369;23;20408;-85
2021/09/11 16:48:41;;;;;;;5.20;3.70;;;20.30;53.50;;;;;;6185114;23;20442;-83
2021/09/11 16:51:08;;;;;;;7.50;3.43;;;20.30;53.50;;;;;;6184904;23;20826;-84
2021/09/11 16:53:35;;;;;;;6.57;4.40;;;20.20;53.40;;;;;;6194014;23;20494;-83
2021/09/11 16:56:24;;;;;;;5.53;4.00;;;20.00;54.40;;;;;;6196347;23;20471;-89
2021/09/11 17:02:09;;;;;;;10.03;3.97;;;19.90;56.40;;;;;;6169409;23;20428;-82
2021/09/11 17:05:04;;;;;;;6.97;4.10;;;19.80;58.40;;;;;;6181356;23;20965;-85
2021/09/11 17:08:05;;;;;;;;;;;;;;;;;;;;;
2021/09/11 17:10:32;;;;;;;7.97;4.17;;;19.50;66.30;;;;;;6195860;23;20438;-85
